Terminal Aerodrome Forecast
Issued by NWS Quad Cities IA IL

Home | Current Version | Previous Version | Text Only | Print | Product List | Glossary On
Versions: 1 2 3 4 5 6 7 8 9 10 11 12 13 14 15 16 17 18 19 20 21 22 23 24 25 26 27 28 29 30 31 32 33 34 35
817
FTUS43 KDVN 221740
TAFDBQ
TAF
KDBQ 221740Z 2218/2318 23005KT P6SM SCT015 BKN035
     FM222000 19005KT P6SM FEW015 BKN035
     FM230000 16004KT P6SM VCTS SCT030CB SCT120
      TEMPO 2300/2302 VRB15G22KT 3SM TSRA BR BKN020CB
     FM230200 15003KT 6SM -RA BR VCTS SCT010CB OVC035
     FM230800 16003KT 3SM -RA BR SCT010 BKN025
     FM231500 14005KT 6SM HZ SCT008 BKN030=

USA.gov is the U.S. government's official web portal to all federal, state and local government web resources and services.